Time;durP1;ratioP1;P1;durP2;ratioP2;P2;SDS_P1;SDS_P2;PMS_P1;PMS_P2;Temp;Humidity;BMP_temperature;BMP_pressure;BME280_temperature;BME280_humidity;BME280_pressure;Samples;Min_cycle;Max_cycle;Signal;HPM_P1;HPM_P2
2021/04/16 00:00:50;;;;;;;11.43;10.43;;;;;;;7.22;82.81;98851.88;1807709;78;21057;-61
2021/04/16 00:03:19;;;;;;;10.80;9.60;;;;;;;7.23;82.70;98850.97;1807766;79;21077;-61
2021/04/16 00:05:48;;;;;;;9.88;8.98;;;;;;;7.23;82.64;98852.27;1807797;79;21050;-61
2021/04/16 00:08:26;;;;;;;10.88;9.88;;;;;;;7.23;82.61;98859.58;1807792;79;21105;-61
2021/04/16 00:11:03;;;;;;;11.03;9.93;;;;;;;7.22;82.64;98854.45;1807833;79;21188;-60
2021/04/16 00:13:31;;;;;;;12.00;10.88;;;;;;;7.23;82.81;98858.28;1807773;78;21227;-60
2021/04/16 00:16:00;;;;;;;11.20;10.15;;;;;;;7.26;82.90;98859.47;1807782;78;21607;-60
2021/04/16 00:18:29;;;;;;;10.23;9.28;;;;;;;7.32;82.82;98856.27;1807764;79;21057;-60
2021/04/16 00:20:58;;;;;;;10.45;9.45;;;;;;;7.32;82.66;98853.23;1807763;79;21062;-60
2021/04/16 00:23:26;;;;;;;10.28;9.28;;;;;;;7.30;82.75;98851.14;1807720;79;22758;-61
2021/04/16 00:25:55;;;;;;;11.22;10.18;;;;;;;7.31;82.81;98854.12;1811479;79;21174;-60
2021/04/16 00:28:24;;;;;;;11.12;10.08;;;;;;;7.30;82.77;98856.32;1813473;79;21577;-60
2021/04/16 00:31:01;;;;;;;11.63;10.58;;;;;;;7.29;82.72;98855.08;1813459;78;21176;-60
2021/04/16 00:33:28;;;;;;;9.93;8.95;;;;;;;7.28;82.75;98855.53;1813535;78;21057;-61
2021/04/16 00:35:58;;;;;;;10.55;9.55;;;;;;;7.28;82.69;98848.22;1813453;79;21057;-62
2021/04/16 00:38:25;;;;;;;11.30;10.20;;;;;;;7.28;82.70;98851.65;1813332;77;21620;-60
2021/04/16 00:41:00;;;;;;;11.73;10.63;;;;;;;7.28;82.72;98852.09;1813389;79;21144;-60
2021/04/16 00:43:31;;;;;;;11.50;10.30;;;;;;;7.29;82.67;98846.87;1813441;79;21080;-60
2021/04/16 00:46:26;;;;;;;11.15;10.05;;;;;;;7.31;82.67;98850.70;1813777;78;21057;-60
2021/04/16 00:48:58;;;;;;;10.58;9.60;;;;;;;7.33;82.63;98850.19;1813679;79;21190;-60
2021/04/16 00:51:43;;;;;;;11.80;10.35;;;;;;;7.34;82.54;98846.70;1813621;78;21062;-62
2021/04/16 00:54:15;;;;;;;12.78;11.50;;;;;;;7.29;82.40;98848.16;1782254;79;21179;-60
2021/04/16 00:56:42;;;;;;;12.50;11.30;;;;;;;7.26;82.53;98843.10;1813672;79;21104;-60
2021/04/16 00:59:11;;;;;;;12.55;11.35;;;;;;;7.26;82.63;98840.06;1787017;79;21037;-61
2021/04/16 01:01:38;;;;;;;12.55;11.35;;;;;;;7.26;82.60;98845.23;1813611;79;21350;-61
2021/04/16 01:04:06;;;;;;;11.70;10.58;;;;;;;7.23;82.52;98845.80;1813508;78;21497;-60
2021/04/16 01:06:33;;;;;;;12.75;11.45;;;;;;;7.19;82.59;98845.06;1813613;78;21100;-60
2021/04/16 01:09:01;;;;;;;13.25;11.95;;;;;;;7.13;82.69;98841.89;1813602;78;21184;-61
2021/04/16 01:11:29;;;;;;;13.50;12.10;;;;;;;7.07;82.84;98839.08;1813573;78;21070;-61
2021/04/16 01:13:58;;;;;;;12.20;10.95;;;;;;;7.01;83.06;98837.16;1813624;79;21359;-61
2021/04/16 01:16:30;;;;;;;12.28;11.08;;;;;;;6.99;83.16;98846.73;1813658;79;21529;-61
2021/04/16 01:18:58;;;;;;;11.75;10.58;;;;;;;6.98;83.34;98843.31;1787510;79;21045;-61
2021/04/16 01:21:40;;;;;;;13.30;10.93;;;;;;;6.98;83.30;98850.22;1813602;78;21089;-61
2021/04/16 01:24:30;;;;;;;12.80;11.50;;;;;;;6.91;83.32;98841.39;1813841;79;21041;-61
2021/04/16 01:26:59;;;;;;;11.10;10.10;;;;;;;6.87;83.53;98841.55;1813546;78;21791;-61
2021/04/16 01:29:27;;;;;;;11.30;10.20;;;;;;;6.86;83.58;98842.45;1813528;78;21088;-61
2021/04/16 01:31:56;;;;;;;11.55;10.35;;;;;;;6.83;83.58;98841.27;1813576;79;21494;-61
2021/04/16 01:34:27;;;;;;;11.18;10.08;;;;;;;6.80;83.75;98833.61;1813547;78;21144;-61
2021/04/16 01:36:57;;;;;;;12.80;11.57;;;;;;;6.78;83.76;98830.27;1813499;77;21133;-61
2021/04/16 01:39:28;;;;;;;10.90;9.80;;;;;;;6.77;83.77;98832.02;1813613;78;21057;-61
2021/04/16 01:41:56;;;;;;;11.88;10.65;;;;;;;6.78;83.81;98830.27;1813558;79;21089;-61
2021/04/16 01:44:27;;;;;;;11.20;10.10;;;;;;;6.76;83.81;98826.45;1813533;79;21108;-61
2021/04/16 01:46:59;;;;;;;11.45;10.40;;;;;;;6.75;83.95;98834.25;1813574;79;21136;-61
2021/04/16 01:49:35;;;;;;;11.12;10.03;;;;;;;6.76;84.12;98840.66;1813872;79;21048;-60
2021/04/16 01:52:05;;;;;;;11.12;10.03;;;;;;;6.78;84.17;98834.99;1813606;79;21440;-61
2021/04/16 01:54:41;;;;;;;10.03;9.03;;;;;;;6.79;83.96;98836.68;1813589;78;21132;-63
2021/04/16 01:57:26;;;;;;;10.30;9.30;;;;;;;6.81;83.72;98834.01;1813581;79;21069;-61
2021/04/16 01:59:53;;;;;;;11.70;10.53;;;;;;;6.79;83.56;98837.97;1813720;78;26630;-61
2021/04/16 02:02:27;;;;;;;11.43;10.30;;;;;;;6.77;83.58;98840.21;1813661;78;21564;-60
2021/04/16 02:04:54;;;;;;;9.83;8.90;;;;;;;6.74;83.62;98835.15;1813080;78;21339;-60
2021/04/16 02:07:24;;;;;;;9.60;8.60;;;;;;;6.74;83.67;98837.28;1813593;79;21560;-60
2021/04/16 02:09:51;;;;;;;10.28;9.18;;;;;;;6.75;83.67;98838.12;1813615;79;21147;-61
2021/04/16 02:12:23;;;;;;;10.10;9.10;;;;;;;6.73;83.78;98836.05;1813547;78;21057;-61
2021/04/16 02:14:52;;;;;;;;;;;;;;;6.74;83.92;98835.99;1816385;78;21577;-61
2021/04/16 02:17:25;;;;;;;10.72;9.73;;;;;;;6.75;83.74;98833.80;1813576;79;21202;-61
2021/04/16 02:19:58;;;;;;;9.80;8.80;;;;;;;6.74;83.78;98837.73;1813615;79;21124;-62
2021/04/16 02:22:28;;;;;;;10.85;9.75;;;;;;;6.74;83.72;98837.73;1813538;79;21058;-62
2021/04/16 02:24:55;;;;;;;10.78;9.78;;;;;;;6.75;83.74;98839.42;1813127;79;21148;-62
2021/04/16 02:27:26;;;;;;;10.50;9.48;;;;;;;6.75;83.76;98837.68;1799970;79;21104;-62
2021/04/16 02:29:55;;;;;;;10.65;9.65;;;;;;;6.75;83.55;98837.68;1799944;79;21363;-62
2021/04/16 02:32:23;;;;;;;10.08;9.08;;;;;;;6.75;83.54;98837.68;1799857;78;21100;-62
2021/04/16 02:34:52;;;;;;;10.20;9.08;;;;;;;6.77;83.47;98838.47;1799871;78;21117;-62
2021/04/16 02:37:22;;;;;;;9.85;8.95;;;;;;;6.79;83.35;98839.27;1799938;78;21052;-62
2021/04/16 02:39:50;;;;;;;11.15;9.90;;;;;;;6.80;83.25;98837.49;1800044;79;21469;-62
2021/04/16 02:42:17;;;;;;;10.30;9.20;;;;;;;6.79;83.14;98831.51;1800048;79;22200;-62
2021/04/16 02:44:45;;;;;;;10.08;9.10;;;;;;;6.81;83.02;98832.72;1799820;79;21121;-62
2021/04/16 02:47:13;;;;;;;9.78;8.75;;;;;;;6.79;82.81;98833.25;1799923;79;21540;-62
2021/04/16 02:49:43;;;;;;;10.65;9.60;;;;;;;6.78;82.79;98834.15;1799905;79;21497;-62
2021/04/16 02:52:10;;;;;;;10.18;9.03;;;;;;;6.78;82.75;98832.86;1799911;79;21469;-62
2021/04/16 02:54:38;;;;;;;9.45;8.60;;;;;;;6.78;82.72;98830.27;1799983;78;21426;-62
2021/04/16 02:57:07;;;;;;;11.15;10.05;;;;;;;6.77;82.64;98827.30;1799907;78;21489;-62
2021/04/16 02:59:36;;;;;;;11.18;9.45;;;;;;;6.76;82.83;98833.36;1799883;79;21060;-62
2021/04/16 03:02:04;;;;;;;11.40;9.70;;;;;;;6.75;82.80;98829.09;1799847;78;21108;-62
2021/04/16 03:04:33;;;;;;;15.55;10.53;;;;;;;6.72;82.77;98829.19;1799879;79;21113;-62
2021/04/16 03:07:01;;;;;;;11.22;10.13;;;;;;;6.68;83.12;98828.90;1799839;79;21391;-62
2021/04/16 03:09:28;;;;;;;11.15;9.53;;;;;;;6.69;83.19;98835.75;1799830;79;21498;-62
2021/04/16 03:11:56;;;;;;;10.75;9.65;;;;;;;6.67;82.93;98829.80;1799838;79;21049;-62
2021/04/16 03:14:23;;;;;;;10.23;8.80;;;;;;;6.65;83.02;98831.14;1799828;78;21560;-62
2021/04/16 03:16:50;;;;;;;10.23;9.23;;;;;;;6.66;82.97;98834.13;1799905;79;21049;-62
2021/04/16 03:19:19;;;;;;;10.58;9.48;;;;;;;6.65;82.77;98831.59;1799991;78;21477;-62
2021/04/16 03:21:47;;;;;;;11.88;9.98;;;;;;;6.60;82.58;98838.66;1799846;78;21076;-62
2021/04/16 03:24:14;;;;;;;10.08;9.08;;;;;;;6.56;82.83;98839.23;1799849;79;21160;-62
2021/04/16 03:26:42;;;;;;;16.73;9.68;;;;;;;6.56;82.64;98835.36;1799768;78;21990;-62
2021/04/16 03:29:09;;;;;;;9.48;8.50;;;;;;;6.53;82.43;98838.89;1799851;78;21057;-61
2021/04/16 03:31:36;;;;;;;8.93;8.08;;;;;;;6.51;82.50;98837.25;1799848;78;21443;-60
2021/04/16 03:34:05;;;;;;;8.48;7.67;;;;;;;6.48;82.17;98836.06;1799821;78;21100;-60
2021/04/16 03:36:33;;;;;;;8.58;7.78;;;;;;;6.44;82.09;98840.48;1799798;78;21104;-62
2021/04/16 03:39:00;;;;;;;7.70;7.00;;;;;;;6.42;81.89;98842.72;1799864;79;21072;-61
2021/04/16 03:41:28;;;;;;;7.37;6.67;;;;;;;6.39;81.80;98838.98;1799824;79;21068;-61
2021/04/16 03:43:55;;;;;;;8.45;7.45;;;;;;;6.37;81.91;98838.19;1799823;79;23518;-61
2021/04/16 03:46:23;;;;;;;9.35;8.45;;;;;;;6.36;81.86;98841.67;1799801;78;21104;-61
2021/04/16 03:48:51;;;;;;;8.45;7.62;;;;;;;6.34;81.82;98842.16;1799830;79;21139;-60
2021/04/16 03:51:20;;;;;;;7.83;7.03;;;;;;;6.35;81.84;98839.98;1799860;79;21080;-61
2021/04/16 03:53:47;;;;;;;13.48;8.10;;;;;;;6.37;81.71;98841.62;1799863;79;21050;-60
2021/04/16 03:56:16;;;;;;;9.68;8.78;;;;;;;6.38;81.60;98843.30;1799910;79;21148;-60
2021/04/16 03:58:44;;;;;;;11.93;8.95;;;;;;;6.38;81.70;98843.30;1799823;78;21124;-60
2021/04/16 04:01:15;;;;;;;10.43;8.50;;;;;;;6.41;81.68;98843.17;1799841;78;21116;-61
2021/04/16 04:03:43;;;;;;;12.50;8.00;;;;;;;6.47;81.75;98847.30;1799942;79;21103;-61
2021/04/16 04:06:11;;;;;;;9.55;7.78;;;;;;;6.51;81.59;98840.68;1799838;79;21195;-61
2021/04/16 04:08:39;;;;;;;10.30;9.30;;;;;;;6.54;81.52;98844.45;1799817;78;22795;-61
2021/04/16 04:11:07;;;;;;;12.28;10.18;;;;;;;6.55;81.42;98845.30;1799787;79;21501;-61
2021/04/16 04:13:34;;;;;;;10.13;9.13;;;;;;;6.54;81.52;98841.03;1799897;79;21583;-61
2021/04/16 04:16:05;;;;;;;13.40;10.25;;;;;;;6.56;81.77;98843.11;1799835;78;21108;-61
2021/04/16 04:18:34;;;;;;;11.35;10.18;;;;;;;6.59;82.01;98843.01;1799867;79;21124;-61
2021/04/16 04:21:10;;;;;;;10.63;9.53;;;;;;;6.63;81.91;98848.44;1799823;78;21370;-61
2021/04/16 04:23:38;;;;;;;11.35;9.60;;;;;;;6.63;81.67;98838.55;1799772;79;21040;-61
2021/04/16 04:26:06;;;;;;;18.00;10.60;;;;;;;6.62;81.64;98835.56;1801689;79;21050;-61
2021/04/16 04:28:33;;;;;;;11.68;10.48;;;;;;;6.60;81.61;98836.06;1807794;79;21093;-61
2021/04/16 04:31:01;;;;;;;14.05;9.38;;;;;;;6.63;81.83;98832.09;1807800;79;21042;-60
2021/04/16 04:33:28;;;;;;;10.60;9.35;;;;;;;6.69;81.62;98835.75;1807727;78;21452;-61
2021/04/16 04:35:57;;;;;;;15.05;10.15;;;;;;;6.76;81.17;98838.52;1807716;78;21165;-61
2021/04/16 04:38:25;;;;;;;9.80;8.85;;;;;;;6.79;80.80;98835.84;1807700;78;21149;-63
2021/04/16 04:40:52;;;;;;;10.00;9.00;;;;;;;6.80;80.29;98840.92;1807733;78;21117;-61
2021/04/16 04:43:20;;;;;;;16.35;10.10;;;;;;;6.83;80.27;98842.55;1807866;79;21065;-61
2021/04/16 04:45:47;;;;;;;11.20;8.58;;;;;;;6.87;80.08;98843.69;1807756;79;21236;-61
2021/04/16 04:48:15;;;;;;;10.70;7.75;;;;;;;6.91;79.91;98843.13;1807677;78;21132;-62
2021/04/16 04:50:42;;;;;;;9.75;7.70;;;;;;;6.97;79.53;98844.66;1807724;79;21133;-62
2021/04/16 04:53:10;;;;;;;8.40;7.50;;;;;;;6.98;79.07;98839.88;1807734;79;21030;-61
2021/04/16 04:55:37;;;;;;;8.75;7.92;;;;;;;6.99;78.92;98835.11;1807759;78;21045;-62
2021/04/16 04:58:04;;;;;;;9.08;8.18;;;;;;;7.03;78.60;98835.36;1807469;79;21540;-64
2021/04/16 05:00:32;;;;;;;12.10;8.10;;;;;;;7.05;78.63;98834.86;1806617;78;21629;-62
2021/04/16 05:02:59;;;;;;;10.45;8.35;;;;;;;7.11;78.69;98844.53;1806875;79;21109;-62
2021/04/16 05:05:28;;;;;;;13.10;11.10;;;;;;;7.14;78.55;98841.83;1807730;79;21053;-62
2021/04/16 05:07:56;;;;;;;57.17;37.83;;;;;;;7.19;78.53;98840.38;1807016;78;21153;-63
2021/04/16 05:10:24;;;;;;;54.83;40.10;;;;;;;7.20;78.45;98838.16;1806662;78;22146;-62
2021/04/16 05:12:51;;;;;;;27.90;24.10;;;;;;;7.21;78.45;98843.72;1806590;78;21172;-62
2021/04/16 05:15:19;;;;;;;32.35;22.15;;;;;;;7.19;78.18;98838.60;1805379;79;21128;-62
2021/04/16 05:17:46;;;;;;;31.85;28.57;;;;;;;7.20;78.21;98833.83;1803792;78;21127;-65
2021/04/16 05:20:35;;;;;;;20.90;14.70;;;;;;;7.23;78.26;98834.16;1790233;80;21194;-65
2021/04/16 05:23:16;;;;;;;11.97;10.80;;;;;;;7.27;78.10;98830.56;1804035;78;22114;-64
2021/04/16 05:26:01;;;;;;;15.08;11.97;;;;;;;7.24;77.67;98833.27;1806294;78;21189;-62
2021/04/16 05:28:38;;;;;;;12.68;10.18;;;;;;;7.22;77.88;98837.65;1806501;78;21173;-62
2021/04/16 05:31:17;;;;;;;8.98;8.05;;;;;;;7.19;77.41;98833.91;1806120;79;21101;-62
2021/04/16 05:33:57;;;;;;;10.25;9.20;;;;;;;7.15;77.23;98834.92;1777343;79;21086;-62
2021/04/16 05:36:36;;;;;;;9.48;8.08;;;;;;;7.12;77.40;98836.33;1806157;79;21413;-61
2021/04/16 05:39:14;;;;;;;19.35;8.93;;;;;;;7.09;77.32;98833.84;1806193;78;21125;-63
2021/04/16 05:41:44;;;;;;;11.35;8.00;;;;;;;7.08;77.04;98836.04;1777678;79;21114;-62
2021/04/16 05:44:13;;;;;;;10.50;7.95;;;;;;;7.05;76.93;98835.70;1806103;78;21537;-62
2021/04/16 05:46:42;;;;;;;10.43;8.55;;;;;;;7.00;76.82;98836.31;1806175;78;21160;-62
2021/04/16 05:49:10;;;;;;;12.98;8.85;;;;;;;6.97;77.03;98835.16;1806139;79;21466;-62
2021/04/16 05:51:39;;;;;;;9.25;8.25;;;;;;;6.96;77.00;98841.23;1805988;78;21065;-63
2021/04/16 05:54:08;;;;;;;10.63;9.48;;;;;;;6.93;77.16;98836.16;1804600;78;21324;-62
2021/04/16 05:56:37;;;;;;;16.65;10.50;;;;;;;6.90;77.05;98836.27;1806040;79;21113;-61
2021/04/16 05:59:05;;;;;;;18.48;11.33;;;;;;;6.84;77.41;98833.91;1806082;78;21129;-61
2021/04/16 06:01:33;;;;;;;13.58;9.00;;;;;;;6.87;77.62;98833.34;1805845;78;21572;-63
2021/04/16 06:04:01;;;;;;;7.97;7.12;;;;;;;6.93;77.70;98835.33;1805827;78;21114;-62
2021/04/16 06:06:29;;;;;;;8.25;7.45;;;;;;;6.99;77.16;98835.95;1805532;78;21335;-62
2021/04/16 06:08:59;;;;;;;15.95;9.23;;;;;;;6.97;76.65;98838.19;1805432;79;21145;-61
2021/04/16 06:11:30;;;;;;;9.93;7.15;;;;;;;6.92;76.84;98839.65;1805910;78;21157;-61
2021/04/16 06:13:58;;;;;;;19.12;8.60;;;;;;;6.97;77.11;98837.75;1804438;78;21194;-61
2021/04/16 06:16:27;;;;;;;11.10;8.08;;;;;;;7.07;77.13;98842.95;1806024;78;21065;-62
2021/04/16 06:18:55;;;;;;;13.25;7.55;;;;;;;7.16;76.35;98836.16;1805795;79;21121;-63
2021/04/16 06:21:23;;;;;;;12.33;8.18;;;;;;;7.20;76.21;98840.73;1804934;79;21176;-61
2021/04/16 06:23:51;;;;;;;8.55;6.92;;;;;;;7.29;76.25;98840.86;1805485;78;21105;-60
2021/04/16 06:26:18;;;;;;;6.97;6.37;;;;;;;7.39;75.60;98842.20;1805268;78;21342;-61
2021/04/16 06:28:47;;;;;;;7.20;6.50;;;;;;;7.43;75.17;98850.21;1805358;78;21065;-60
2021/04/16 06:31:17;;;;;;;20.02;6.53;;;;;;;7.47;74.98;98844.88;1733779;81;21566;-61
2021/04/16 06:33:44;;;;;;;8.15;6.28;;;;;;;7.48;74.89;98848.30;1721202;82;21173;-61
2021/04/16 06:36:15;;;;;;;9.90;6.78;;;;;;;7.48;74.94;98851.73;1758671;80;21787;-61
2021/04/16 06:38:45;;;;;;;18.17;8.18;;;;;;;7.49;75.01;98852.13;1747380;80;21251;-61
2021/04/16 06:41:24;;;;;;;8.43;7.37;;;;;;;7.54;75.00;98855.38;1758825;81;21545;-61
2021/04/16 06:43:55;;;;;;;13.78;7.28;;;;;;;7.58;74.56;98855.66;1750317;80;21181;-63
2021/04/16 06:46:37;;;;;;;8.80;7.60;;;;;;;7.63;74.42;98850.73;1750175;80;21173;-62
2021/04/16 06:49:13;;;;;;;12.80;10.03;;;;;;;7.64;74.22;98854.55;1716148;82;21243;-62
2021/04/16 06:52:05;;;;;;;9.10;8.15;;;;;;;7.63;74.35;98858.05;1750204;80;21364;-62
2021/04/16 06:55:07;;;;;;;23.83;15.57;;;;;;;7.64;74.51;98860.18;1750430;80;21173;-61
2021/04/16 06:57:52;;;;;;;16.25;13.22;;;;;;;7.64;74.61;98857.59;1745649;80;21098;-61
2021/04/16 07:00:48;;;;;;;10.10;9.10;;;;;;;7.67;74.70;98858.77;1750474;80;21091;-61
2021/04/16 07:03:29;;;;;;;13.68;9.18;;;;;;;7.70;74.53;98864.67;1750496;82;21578;-62
2021/04/16 07:06:02;;;;;;;9.00;8.05;;;;;;;7.71;74.24;98865.52;1750111;81;21738;-62
2021/04/16 07:08:43;;;;;;;15.43;10.30;;;;;;;7.68;74.36;98864.34;1748463;80;21614;-63
2021/04/16 07:11:26;;;;;;;21.37;10.90;;;;;;;7.68;74.64;98865.19;1747222;81;21198;-64
2021/04/16 07:13:53;;;;;;;10.72;9.63;;;;;;;7.74;74.60;98863.66;1747450;82;21197;-62
2021/04/16 07:16:22;;;;;;;11.00;9.88;;;;;;;7.75;74.31;98862.76;1748555;82;21165;-62
2021/04/16 07:18:54;;;;;;;18.55;11.45;;;;;;;7.74;74.31;98866.25;1748673;80;21377;-61
2021/04/16 07:21:24;;;;;;;11.70;10.50;;;;;;;7.74;74.42;98858.48;1748813;82;21229;-62
2021/04/16 07:23:58;;;;;;;15.23;10.30;;;;;;;7.75;74.33;98866.64;1748863;80;21142;-62
2021/04/16 07:26:48;;;;;;;24.15;12.78;;;;;;;7.74;74.45;98862.37;1746865;81;21494;-62
2021/04/16 07:29:53;;;;;;;17.62;11.43;;;;;;;7.73;74.62;98865.86;1748971;81;21059;-63
2021/04/16 07:32:42;;;;;;;18.62;12.43;;;;;;;7.75;74.76;98865.80;1748685;82;23459;-63
2021/04/16 07:35:27;;;;;;;28.27;12.95;;;;;;;7.77;74.57;98870.02;1748848;82;21196;-61
2021/04/16 07:38:26;;;;;;;18.12;14.33;;;;;;;7.82;74.41;98867.22;1748910;82;21579;-62
2021/04/16 07:41:17;;;;;;;18.12;12.25;;;;;;;7.83;74.13;98868.45;1743037;82;21130;-62
2021/04/16 07:43:52;;;;;;;14.38;11.65;;;;;;;7.81;74.37;98870.70;1748724;80;21482;-63
2021/04/16 07:46:30;;;;;;;23.47;16.70;;;;;;;7.79;74.20;98869.51;1748833;80;22349;-65
2021/04/16 07:49:20;;;;;;;21.90;16.35;;;;;;;7.76;74.49;98867.48;1720235;82;21083;-62
2021/04/16 07:51:49;;;;;;;17.90;16.05;;;;;;;7.78;74.59;98872.16;1748986;80;21091;-62
2021/04/16 07:54:27;;;;;;;29.70;18.40;;;;;;;7.83;74.61;98870.20;1748917;80;21083;-63
2021/04/16 07:57:14;;;;;;;20.10;15.20;;;;;;;7.86;74.61;98870.92;1748851;80;21150;-62
2021/04/16 07:59:59;;;;;;;18.70;13.60;;;;;;;7.96;74.20;98864.94;1748757;80;22155;-66
2021/04/16 08:02:36;;;;;;;20.48;16.93;;;;;;;8.03;73.98;98873.28;1746268;80;21154;-63
2021/04/16 08:05:30;;;;;;;17.02;15.30;;;;;;;8.09;73.86;98873.05;1748976;82;21223;-62
2021/04/16 08:08:26;;;;;;;17.45;15.65;;;;;;;8.14;73.42;98868.53;1748933;82;21495;-63
2021/04/16 08:11:12;;;;;;;21.82;14.70;;;;;;;8.16;73.20;98865.42;1748871;81;21546;-62
2021/04/16 08:13:55;;;;;;;16.48;14.78;;;;;;;8.18;73.10;98870.94;1748867;80;21371;-63
2021/04/16 08:16:36;;;;;;;20.23;13.85;;;;;;;8.21;73.02;98870.78;1726986;81;21167;-64
2021/04/16 08:19:15;;;;;;;;;;;;;;;8.25;73.10;98868.45;1732263;82;21091;-62
2021/04/16 08:21:49;;;;;;;30.45;16.75;;;;;;;8.35;72.93;98868.13;1708586;83;20278;-61
2021/04/16 08:24:57;;;;;;;23.30;17.00;;;;;;;8.42;72.64;98865.64;1746485;81;21058;-63
2021/04/16 08:27:53;;;;;;;17.67;15.20;;;;;;;8.48;72.55;98870.12;1712043;83;21418;-61
2021/04/16 08:30:47;;;;;;;17.02;14.78;;;;;;;8.54;72.38;98872.91;1615461;88;21131;-61
2021/04/16 08:33:34;;;;;;;18.65;14.35;;;;;;;8.56;72.05;98866.77;1615650;88;21214;-62
2021/04/16 08:36:34;;;;;;;16.70;13.32;;;;;;;8.61;71.85;98873.86;1615560;88;21181;-62
2021/04/16 08:39:40;;;;;;;15.45;14.05;;;;;;;8.71;71.52;98871.73;1615608;88;21622;-61
2021/04/16 08:42:15;;;;;;;15.55;14.15;;;;;;;8.82;71.25;98866.91;1615458;88;21462;-64
2021/04/16 08:45:14;;;;;;;15.40;13.95;;;;;;;9.03;70.70;98866.87;1820001;77;22697;-61
2021/04/16 08:48:09;;;;;;;15.83;14.15;;;;;;;9.10;70.12;98873.47;1756498;81;21076;-62
2021/04/16 08:50:38;;;;;;;13.32;12.13;;;;;;;9.15;69.75;98869.77;1762702;81;21379;-62
2021/04/16 08:53:05;;;;;;;14.30;12.88;;;;;;;9.20;69.64;98866.94;1756434;81;21138;-63
2021/04/16 08:55:44;;;;;;;13.68;12.37;;;;;;;9.24;69.39;98873.23;1766101;81;21178;-62
2021/04/16 08:58:33;;;;;;;25.70;13.53;;;;;;;9.30;69.41;98872.95;1765427;81;21107;-62
2021/04/16 09:01:12;;;;;;;12.47;11.18;;;;;;;9.45;69.28;98870.56;1756525;81;21056;-61
2021/04/16 09:03:54;;;;;;;13.22;11.85;;;;;;;9.59;68.42;98874.67;1766205;81;21199;-61
2021/04/16 09:06:39;;;;;;;29.50;13.10;;;;;;;9.66;67.92;98876.89;1749851;80;21073;-62
2021/04/16 09:09:16;;;;;;;14.85;11.93;;;;;;;9.78;67.93;98870.30;1769397;81;21059;-62
2021/04/16 09:11:50;;;;;;;16.05;12.15;;;;;;;9.93;67.70;98872.61;1767203;81;21111;-63
2021/04/16 09:14:32;;;;;;;11.95;10.85;;;;;;;10.07;67.29;98872.77;1769236;81;22257;-62
2021/04/16 09:17:05;;;;;;;13.55;12.05;;;;;;;10.14;66.29;98871.56;1767046;81;21615;-63
2021/04/16 09:19:39;;;;;;;12.75;11.45;;;;;;;10.12;66.65;98874.69;1769447;81;21618;-62
2021/04/16 09:22:16;;;;;;;14.20;12.90;;;;;;;10.14;66.76;98874.16;1769725;81;21071;-61
2021/04/16 09:24:59;;;;;;;14.05;12.23;;;;;;;10.13;67.43;98874.23;1769402;81;21581;-62
2021/04/16 09:27:40;;;;;;;12.40;11.30;;;;;;;10.08;67.78;98871.02;1769856;81;21118;-62
2021/04/16 09:30:14;;;;;;;13.32;12.03;;;;;;;10.09;67.96;98872.70;1769617;81;21333;-61
2021/04/16 09:32:52;;;;;;;13.45;12.05;;;;;;;10.07;68.46;98874.53;1769557;81;21071;-61
2021/04/16 09:35:28;;;;;;;13.20;12.00;;;;;;;10.01;68.76;98871.30;1769577;81;21015;-61
2021/04/16 09:38:34;;;;;;;12.78;11.57;;;;;;;9.99;68.75;98874.43;1768819;81;21181;-61
2021/04/16 09:41:24;;;;;;;12.95;11.85;;;;;;;9.93;69.15;98875.20;1709046;84;21089;-61
2021/04/16 09:43:56;;;;;;;12.05;10.93;;;;;;;9.84;69.03;98875.63;1733689;82;21370;-63
2021/04/16 09:46:38;;;;;;;11.08;10.08;;;;;;;9.78;69.05;98872.05;1810355;79;21171;-62
2021/04/16 09:49:12;;;;;;;11.73;10.63;;;;;;;9.70;69.24;98883.25;1810416;79;21111;-62
2021/04/16 09:51:45;;;;;;;13.18;11.88;;;;;;;9.67;70.10;98873.38;1782656;79;21127;-61
2021/04/16 09:57:09;;;;;;;11.73;10.72;;;;;;;9.74;70.92;98872.65;1809822;79;21204;-63
2021/04/16 09:59:40;;;;;;;12.10;10.95;;;;;;;9.84;71.28;98864.78;1809704;79;20960;-61
2021/04/16 10:02:19;;;;;;;10.13;9.23;;;;;;;9.95;71.25;98868.18;1809864;79;21052;-62
2021/04/16 10:05:20;;;;;;;10.30;9.30;;;;;;;10.05;70.48;98869.86;1809723;79;21135;-61
2021/04/16 10:07:54;;;;;;;10.82;9.70;;;;;;;10.08;69.76;98866.66;1808909;79;21610;-63
2021/04/16 10:10:40;;;;;;;11.50;9.23;;;;;;;10.09;70.26;98867.05;1809420;79;21522;-62
2021/04/16 10:13:30;;;;;;;12.28;10.03;;;;;;;10.13;70.52;98872.48;1802245;78;21083;-69
2021/04/16 10:16:00;;;;;;;10.43;9.43;;;;;;;10.18;70.58;98871.80;1795585;79;21484;-63
2021/04/16 10:18:39;;;;;;;9.70;8.80;;;;;;;10.19;70.25;98868.29;1782194;80;21162;-61
2021/04/16 10:54:49;;;;;;;5.87;5.37;;;;;;;9.95;69.66;98886.37;1840754;78;21173;-62
2021/04/16 12:39:06;;;;;;;3.58;3.27;;;;;;;9.49;72.53;98890.28;1811087;78;21185;-62
2021/04/16 12:41:39;;;;;;;3.90;3.58;;;;;;;9.53;72.13;98883.59;1810405;79;21162;-62
2021/04/16 12:44:07;;;;;;;4.28;3.87;;;;;;;9.51;71.71;98884.11;1810062;79;21130;-64
2021/04/16 12:46:38;;;;;;;7.97;6.17;;;;;;;9.47;72.26;98881.27;1809791;79;21619;-61
2021/04/16 12:49:06;;;;;;;6.62;4.15;;;;;;;9.52;72.50;98884.95;1809837;79;21162;-63
2021/04/16 12:51:34;;;;;;;4.85;4.45;;;;;;;9.57;72.51;98881.69;1809746;79;22268;-63
2021/04/16 12:54:02;;;;;;;4.37;3.98;;;;;;;9.62;72.14;98884.44;1809181;79;21843;-63
2021/04/16 12:56:39;;;;;;;3.98;3.67;;;;;;;9.65;71.60;98880.40;1810283;79;21122;-62
2021/04/16 12:59:17;;;;;;;3.87;3.35;;;;;;;9.71;70.40;98884.93;1810701;79;21062;-62
2021/04/16 13:01:47;;;;;;;4.42;3.92;;;;;;;9.71;71.00;98883.63;1810747;79;21479;-61
2021/04/16 13:04:15;;;;;;;4.55;4.15;;;;;;;9.68;71.17;98879.42;1810662;79;21361;-62
2021/04/16 13:06:44;;;;;;;3.90;3.60;;;;;;;9.62;70.79;98882.30;1810687;79;21110;-62
2021/04/16 13:09:14;;;;;;;3.90;3.60;;;;;;;9.57;71.06;98886.88;1810726;79;21530;-61
2021/04/16 13:11:42;;;;;;;3.80;3.33;;;;;;;9.50;70.74;98888.91;1810836;79;21494;-62
2021/04/16 13:14:09;;;;;;;4.20;3.80;;;;;;;9.44;71.10;98881.40;1810620;78;21126;-62
2021/04/16 13:16:37;;;;;;;4.42;4.03;;;;;;;9.43;71.58;98886.20;1810635;78;21475;-63
2021/04/16 13:19:09;;;;;;;4.25;3.72;;;;;;;9.44;71.78;98887.05;1810582;79;21070;-61
2021/04/16 13:21:40;;;;;;;4.30;3.90;;;;;;;9.44;71.42;98890.94;1810930;79;21039;-63
2021/04/16 13:24:09;;;;;;;4.58;3.70;;;;;;;9.48;71.77;98888.14;1810735;79;21055;-62
2021/04/16 13:26:37;;;;;;;3.25;2.95;;;;;;;9.55;71.37;98890.00;1810673;79;21059;-61
2021/04/16 13:29:06;;;;;;;3.37;3.08;;;;;;;9.59;70.84;98895.45;1810637;79;21248;-61
2021/04/16 13:31:36;;;;;;;3.87;3.33;;;;;;;9.57;70.76;98899.41;1810582;79;20971;-62
2021/04/16 13:34:04;;;;;;;3.83;3.52;;;;;;;9.58;70.80;98900.25;1810442;78;21075;-61
2021/04/16 13:36:33;;;;;;;4.53;3.75;;;;;;;9.59;71.23;98900.64;1810779;79;21530;-61
2021/04/16 13:39:02;;;;;;;3.83;3.42;;;;;;;9.60;70.71;98894.05;1810667;78;21554;-61
2021/04/16 13:41:32;;;;;;;3.52;3.08;;;;;;;9.56;70.90;98900.32;1810363;79;21535;-62
2021/04/16 13:44:00;;;;;;;4.78;4.37;;;;;;;9.57;71.43;98903.30;1810663;79;21093;-60
2021/04/16 13:46:30;;;;;;;4.78;4.28;;;;;;;9.58;71.94;98899.80;1810622;79;21111;-61
2021/04/16 13:49:00;;;;;;;5.90;5.25;;;;;;;9.62;71.74;98896.12;1810630;79;21054;-62
2021/04/16 13:51:28;;;;;;;4.60;4.20;;;;;;;9.65;72.25;98900.33;1784212;79;21059;-62
2021/04/16 13:53:55;;;;;;;4.53;4.12;;;;;;;9.68;71.81;98892.41;1810527;79;21185;-62
2021/04/16 13:56:23;;;;;;;5.72;4.25;;;;;;;9.67;70.83;98901.95;1817426;78;21513;-62
2021/04/16 13:58:51;;;;;;;5.03;4.10;;;;;;;9.60;70.44;98895.34;1786529;79;21107;-63
2021/04/16 14:01:19;;;;;;;4.95;4.45;;;;;;;9.53;70.51;98895.72;1838111;78;21139;-62
2021/04/16 14:03:50;;;;;;;4.85;4.40;;;;;;;9.53;70.75;98904.35;1837639;77;21592;-63
2021/04/16 14:06:24;;;;;;;4.30;3.90;;;;;;;9.54;70.83;98903.44;1837899;78;21186;-61
2021/04/16 14:08:58;;;;;;;4.53;4.12;;;;;;;9.56;70.62;98896.87;1838189;78;21528;-62
2021/04/16 14:11:26;;;;;;;5.00;4.60;;;;;;;9.55;70.14;98901.69;1838159;78;21048;-62
2021/04/16 14:13:54;;;;;;;4.95;4.45;;;;;;;9.53;70.15;98911.30;1838194;77;21138;-62
2021/04/16 14:16:27;;;;;;;4.42;4.03;;;;;;;9.48;69.97;98907.61;1838091;78;21116;-62
2021/04/16 14:18:54;;;;;;;;;;;;;;;9.42;70.59;98900.55;1840951;77;22210;-62